Time;durP1;ratioP1;P1;durP2;ratioP2;P2;SDS_P1;SDS_P2;PMS_P1;PMS_P2;Temp;Humidity;BMP_temperature;BMP_pressure;BME280_temperature;BME280_humidity;BME280_pressure;Samples;Min_cycle;Max_cycle;Signal;HPM_P1;HPM_P2
2022/06/10 00:00:24;;;;;;;30.55;12.98;;;;;;;10.93;95.03;101961.16;4935697;29;20036;-53
2022/06/10 00:02:50;;;;;;;34.38;11.60;;;;;;;10.91;95.57;101965.34;4934957;29;20074;-51
2022/06/10 00:05:20;;;;;;;35.17;12.65;;;;;;;10.86;95.01;101967.75;4935464;29;20453;-51
2022/06/10 00:07:46;;;;;;;33.67;12.38;;;;;;;10.87;94.90;101970.38;4935580;29;20395;-49
2022/06/10 00:10:14;;;;;;;40.85;12.15;;;;;;;10.89;94.93;101964.41;4934657;29;20026;-49
2022/06/10 00:12:41;;;;;;;35.38;12.73;;;;;;;10.89;95.07;101972.16;4935961;29;20028;-50
2022/06/10 00:15:08;;;;;;;40.87;13.07;;;;;;;10.92;95.06;101959.38;4935512;29;20102;-49
2022/06/10 00:17:33;;;;;;;40.80;12.45;;;;;;;10.92;94.86;101968.00;4934808;29;20020;-51
2022/06/10 00:19:59;;;;;;;40.28;12.45;;;;;;;10.89;94.67;101961.84;4935508;29;20535;-53
2022/06/10 00:22:25;;;;;;;38.00;12.45;;;;;;;10.91;94.72;101962.78;4935428;29;20051;-52
2022/06/10 00:24:51;;;;;;;45.05;14.27;;;;;;;10.85;94.69;101966.84;4934340;29;20489;-51
2022/06/10 00:27:18;;;;;;;27.98;12.63;;;;;;;10.80;95.26;101963.16;4935593;29;20063;-52
2022/06/10 00:29:43;;;;;;;32.00;12.68;;;;;;;10.72;95.26;101964.50;4935577;29;20020;-51
2022/06/10 00:32:08;;;;;;;33.28;12.90;;;;;;;10.70;96.00;101960.97;4934528;29;20457;-49
2022/06/10 00:34:35;;;;;;;32.55;12.65;;;;;;;10.67;95.75;101966.00;4935526;29;20028;-51
2022/06/10 00:37:05;;;;;;;37.47;12.48;;;;;;;10.65;96.49;101962.44;4935260;29;20051;-51
2022/06/10 00:39:31;;;;;;;41.08;12.75;;;;;;;10.61;96.38;101963.13;4934754;29;20024;-51
2022/06/10 00:41:56;;;;;;;30.92;12.18;;;;;;;10.56;96.80;101954.28;4935218;29;20345;-51
2022/06/10 00:44:39;;;;;;;36.53;12.50;;;;;;;10.56;97.11;101962.91;4934642;29;20050;-51
2022/06/10 00:47:26;;;;;;;40.47;13.43;;;;;;;10.57;97.27;101953.47;4935231;29;20027;-50
2022/06/10 00:50:09;;;;;;;34.25;14.38;;;;;;;10.58;97.89;101960.41;4935171;29;20118;-52
2022/06/10 00:52:39;;;;;;;36.75;13.60;;;;;;;10.62;97.95;101957.16;4934391;29;20388;-51
2022/06/10 00:55:06;;;;;;;40.13;14.32;;;;;;;10.62;98.32;101955.44;4934935;29;20487;-52
2022/06/10 00:57:39;;;;;;;38.13;13.98;;;;;;;10.66;98.18;101959.06;4935109;29;20403;-50
2022/06/10 01:00:10;;;;;;;37.22;13.15;;;;;;;10.70;97.74;101950.66;4934288;29;20030;-52
2022/06/10 01:02:36;;;;;;;39.25;14.27;;;;;;;10.70;98.11;101953.22;4936923;29;20028;-52
2022/06/10 01:05:18;;;;;;;32.35;13.52;;;;;;;10.75;98.21;101958.63;4938515;29;20660;-53
2022/06/10 01:07:51;;;;;;;41.42;14.00;;;;;;;10.83;97.95;101953.00;4938018;29;20027;-50
2022/06/10 01:10:18;;;;;;;39.58;13.25;;;;;;;10.90;97.89;101953.28;4938448;29;20428;-52
2022/06/10 01:13:00;;;;;;;35.50;13.13;;;;;;;11.00;97.33;101950.28;4937644;29;20399;-49
2022/06/10 01:15:45;;;;;;;35.42;13.85;;;;;;;11.09;97.13;101955.91;4938498;29;20048;-51
2022/06/10 01:18:32;;;;;;;39.75;12.95;;;;;;;11.19;95.79;101958.09;4938340;29;20027;-52
2022/06/10 01:21:25;;;;;;;32.35;12.32;;;;;;;11.30;95.31;101953.38;4937445;29;20036;-53
2022/06/10 01:24:35;;;;;;;34.58;11.73;;;;;;;11.45;94.12;101952.28;4938382;29;20111;-52
2022/06/10 01:30:33;;;;;;;32.22;9.80;;;;;;;11.68;91.14;101950.69;4938264;29;20043;-53
2022/06/10 01:33:16;;;;;;;43.47;10.77;;;;;;;11.79;90.55;101952.06;4938076;29;20066;-53
2022/06/10 01:35:49;;;;;;;39.10;10.45;;;;;;;11.88;89.89;101946.41;4937349;29;20027;-53
2022/06/10 01:38:35;;;;;;;28.83;8.23;;;;;;;11.98;88.80;101947.69;4938251;29;20079;-52
2022/06/10 01:41:11;;;;;;;29.35;9.25;;;;;;;12.07;88.59;101952.34;4937237;29;20028;-52
2022/06/10 01:44:17;;;;;;;32.15;9.35;;;;;;;12.13;88.24;101950.88;4938048;29;20112;-52
2022/06/10 01:46:53;;;;;;;42.10;8.38;;;;;;;12.18;87.55;101951.09;4938036;29;20044;-52
2022/06/10 01:49:26;;;;;;;33.13;9.00;;;;;;;12.21;88.00;101956.38;4937207;29;20028;-53
2022/06/10 01:52:06;;;;;;;31.23;8.85;;;;;;;12.25;87.47;101954.81;4937825;29;20110;-51
2022/06/10 01:54:53;;;;;;;38.45;8.00;;;;;;;12.29;86.93;101954.09;4937948;29;20035;-53
2022/06/10 01:57:32;;;;;;;30.70;8.23;;;;;;;12.33;86.98;101949.13;4938026;29;20031;-51
2022/06/10 02:00:04;;;;;;;30.90;7.88;;;;;;;12.35;87.19;101949.19;4937526;29;20404;-53
2022/06/10 02:02:36;;;;;;;33.42;7.88;;;;;;;12.41;86.12;101953.69;4936692;29;20030;-53
2022/06/10 02:05:07;;;;;;;28.05;7.63;;;;;;;12.45;86.38;101951.31;4937727;29;20094;-53
2022/06/10 02:07:40;;;;;;;26.25;7.28;;;;;;;12.50;85.79;101951.50;4937692;29;20042;-53
2022/06/10 02:10:20;;;;;;;25.13;8.15;;;;;;;12.54;85.99;101952.47;4936622;29;20028;-52
2022/06/10 02:12:51;;;;;;;29.73;9.02;;;;;;;12.59;85.68;101956.13;4937259;29;20432;-53
2022/06/10 02:15:26;;;;;;;27.08;6.93;;;;;;;12.63;85.06;101951.16;4937322;29;20468;-52
2022/06/10 02:17:58;;;;;;;37.42;7.00;;;;;;;12.70;83.51;101952.25;4936582;29;20054;-54
2022/06/10 02:20:27;;;;;;;35.53;7.43;;;;;;;12.72;84.63;101955.81;4937371;29;20024;-51
2022/06/10 02:22:57;;;;;;;28.02;6.53;;;;;;;12.78;83.54;101949.97;4936176;29;20512;-52
2022/06/10 02:25:27;;;;;;;27.67;6.57;;;;;;;12.80;83.50;101951.78;4937130;29;20040;-52
2022/06/10 02:27:58;;;;;;;26.30;6.65;;;;;;;12.81;83.48;101950.09;4937232;29;20559;-53
2022/06/10 02:30:28;;;;;;;25.00;6.20;;;;;;;12.83;83.32;101954.53;4936417;29;20046;-53
2022/06/10 02:32:56;;;;;;;31.15;7.20;;;;;;;12.84;83.46;101961.44;4937026;29;20086;-52
2022/06/10 02:35:26;;;;;;;27.50;6.78;;;;;;;12.87;83.44;101967.56;4936748;29;20046;-52
2022/06/10 02:38:06;;;;;;;25.13;6.20;;;;;;;12.89;83.64;101971.09;4936114;29;20059;-51
2022/06/10 02:40:46;;;;;;;22.15;6.30;;;;;;;12.90;83.67;101971.16;4937172;29;20026;-50
2022/06/10 02:43:22;;;;;;;33.97;7.35;;;;;;;12.91;83.78;101972.03;4936885;29;20036;-54
2022/06/10 02:45:56;;;;;;;23.63;6.70;;;;;;;12.92;83.36;101968.63;4936260;29;20044;-52
2022/06/10 02:48:45;;;;;;;25.60;6.40;;;;;;;12.94;83.53;101961.81;4936740;29;20451;-52
2022/06/10 02:51:10;;;;;;;28.42;6.20;;;;;;;12.98;82.98;101971.44;4935696;29;20556;-53
2022/06/10 02:53:36;;;;;;;23.17;6.40;;;;;;;12.98;83.16;101959.38;4936811;29;20107;-53
2022/06/10 02:56:12;;;;;;;32.63;7.07;;;;;;;13.01;82.98;101963.78;4936519;29;20197;-53
2022/06/10 03:01:47;;;;;;;24.17;6.28;;;;;;;13.10;83.07;101960.66;4936934;29;20099;-52
2022/06/10 03:04:41;;;;;;;25.95;6.60;;;;;;;13.12;82.76;101967.66;4936246;29;20507;-53
2022/06/10 03:07:18;;;;;;;31.13;6.28;;;;;;;13.13;82.67;101964.25;4935329;29;20543;-52
2022/06/10 03:10:28;;;;;;;33.13;6.95;;;;;;;13.16;82.60;101969.53;4936450;29;20535;-54
2022/06/10 03:13:05;;;;;;;21.85;5.63;;;;;;;13.18;83.06;101973.06;4923875;29;20462;-54
2022/06/10 03:16:01;;;;;;;27.85;6.15;;;;;;;13.22;82.59;101978.34;4936081;29;20464;-51
2022/06/10 03:18:45;;;;;;;21.42;5.55;;;;;;;13.22;82.89;101983.53;4936298;29;20099;-53
2022/06/10 03:21:22;;;;;;;24.15;5.97;;;;;;;13.22;83.23;101978.34;4935265;29;20032;-52
2022/06/10 03:23:53;;;;;;;35.85;6.20;;;;;;;13.23;83.06;101980.13;4935884;29;20118;-50
2022/06/10 03:26:53;;;;;;;23.55;6.90;;;;;;;13.25;83.28;101987.13;4935064;29;20028;-50
2022/06/10 03:29:43;;;;;;;24.70;5.70;;;;;;;13.23;83.79;101985.28;4935996;29;20501;-51
2022/06/10 03:32:18;;;;;;;29.85;5.82;;;;;;;13.23;83.57;101995.66;4935856;29;20019;-51
2022/06/10 03:34:51;;;;;;;25.70;6.13;;;;;;;13.23;84.04;101987.88;4935400;29;20027;-52
2022/06/10 03:37:19;;;;;;;24.77;5.57;;;;;;;13.25;84.11;101988.84;4936023;29;20027;-51
2022/06/10 03:39:52;;;;;;;20.70;6.00;;;;;;;13.27;84.24;102000.09;4936029;29;20020;-50
2022/06/10 03:42:19;;;;;;;26.90;6.82;;;;;;;13.30;84.87;102002.84;4934966;29;20522;-53
2022/06/10 03:44:49;;;;;;;31.77;7.28;;;;;;;13.30;84.12;101995.94;4935831;29;20102;-53
2022/06/10 03:47:19;;;;;;;27.67;6.35;;;;;;;13.30;83.45;101989.88;4935177;29;20035;-50
2022/06/10 03:49:57;;;;;;;25.38;6.05;;;;;;;13.32;84.03;101983.03;4935907;29;20031;-53
2022/06/10 03:52:25;;;;;;;25.15;6.15;;;;;;;13.31;83.56;101989.94;4935665;29;20415;-52
2022/06/10 03:54:50;;;;;;;31.42;5.75;;;;;;;13.30;84.04;101989.88;4934764;29;20030;-52
2022/06/10 03:57:17;;;;;;;32.78;6.10;;;;;;;13.30;84.25;101984.72;4935483;29;20107;-51
2022/06/10 03:59:43;;;;;;;19.67;6.40;;;;;;;13.29;84.36;101990.69;4935926;29;20127;-52
2022/06/10 04:02:09;;;;;;;31.77;6.47;;;;;;;13.30;84.44;101997.66;4934783;29;20028;-52
2022/06/10 04:04:34;;;;;;;21.77;5.65;;;;;;;13.32;84.67;101998.56;4935878;29;20037;-53
2022/06/10 04:06:59;;;;;;;31.70;5.78;;;;;;;13.32;84.79;102002.06;4935516;29;20024;-51
2022/06/10 04:09:25;;;;;;;27.35;6.63;;;;;;;13.33;85.22;102005.53;4934790;29;20036;-52
2022/06/10 04:11:50;;;;;;;28.23;5.82;;;;;;;13.34;84.53;102007.28;4935380;29;20035;-52
2022/06/10 04:14:16;;;;;;;22.55;5.90;;;;;;;13.36;84.52;102002.16;4935526;29;20028;-50
2022/06/10 04:16:41;;;;;;;37.08;6.40;;;;;;;13.36;84.60;102009.94;4934902;29;20032;-53
2022/06/10 04:19:06;;;;;;;27.00;6.00;;;;;;;13.38;84.77;102011.78;4935331;29;20035;-53
2022/06/10 04:21:32;;;;;;;25.63;6.50;;;;;;;13.39;84.85;102008.38;4935600;29;20051;-52
2022/06/10 04:23:57;;;;;;;28.20;6.22;;;;;;;13.38;84.93;102011.78;4934516;29;20557;-53
2022/06/10 04:26:22;;;;;;;28.42;7.05;;;;;;;13.38;85.59;102014.38;4935312;29;20468;-53
2022/06/10 04:28:48;;;;;;;27.50;6.13;;;;;;;13.39;85.92;102023.91;4935356;29;20042;-52
2022/06/10 04:31:13;;;;;;;24.98;6.53;;;;;;;13.40;85.92;102025.69;4934359;29;20531;-53
2022/06/10 04:33:39;;;;;;;28.40;6.00;;;;;;;13.44;85.95;102021.47;4935402;29;20083;-53
2022/06/10 04:36:04;;;;;;;26.13;6.53;;;;;;;13.46;85.98;102014.66;4936443;29;20080;-54
2022/06/10 04:38:30;;;;;;;17.73;5.55;;;;;;;13.47;86.19;102017.28;4938317;29;20461;-52
2022/06/10 04:40:55;;;;;;;27.75;6.35;;;;;;;13.48;86.43;102013.88;4938871;29;20031;-53
2022/06/10 04:43:22;;;;;;;23.05;6.43;;;;;;;13.53;86.81;102014.06;4938933;29;20028;-54
2022/06/10 04:45:53;;;;;;;32.08;6.30;;;;;;;13.56;87.07;102018.47;4938611;29;20078;-52
2022/06/10 04:48:19;;;;;;;34.17;5.60;;;;;;;13.60;86.73;102018.63;4939299;29;20020;-53
2022/06/10 04:50:47;;;;;;;26.83;5.90;;;;;;;13.63;86.10;102012.66;4938108;29;20035;-53
2022/06/10 04:53:13;;;;;;;29.65;6.57;;;;;;;13.66;86.08;102015.38;4938665;29;20032;-53
2022/06/10 04:55:39;;;;;;;34.63;6.43;;;;;;;13.68;86.38;102021.47;4938802;29;20032;-53
2022/06/10 04:58:04;;;;;;;28.75;6.28;;;;;;;13.70;86.48;102012.06;4938014;29;20027;-52
2022/06/10 05:00:34;;;;;;;26.98;6.07;;;;;;;13.74;86.51;102019.13;4938761;29;20032;-54
2022/06/10 05:03:01;;;;;;;27.33;6.57;;;;;;;13.76;86.35;102017.47;4938656;29;20095;-52
2022/06/10 05:05:26;;;;;;;25.40;5.67;;;;;;;13.78;86.37;102014.94;4937855;29;20028;-52
2022/06/10 05:07:52;;;;;;;23.00;5.82;;;;;;;13.80;86.32;102011.56;4938516;29;20028;-53
2022/06/10 05:10:19;;;;;;;32.30;6.07;;;;;;;13.86;86.08;102010.00;4938443;29;20028;-54
2022/06/10 05:12:45;;;;;;;19.63;6.32;;;;;;;13.88;85.40;102013.53;4937725;29;20518;-53
2022/06/10 05:15:15;;;;;;;27.92;6.00;;;;;;;13.88;84.98;102009.25;4938369;29;20067;-53
2022/06/10 05:17:41;;;;;;;25.20;6.40;;;;;;;13.91;84.58;102008.47;4938304;29;20440;-53
2022/06/10 05:20:09;;;;;;;24.90;6.30;;;;;;;13.94;84.70;102008.56;4937447;29;20038;-54
2022/06/10 05:22:34;;;;;;;25.88;5.85;;;;;;;13.97;84.24;102011.28;4938191;29;20027;-51
2022/06/10 05:24:59;;;;;;;33.42;6.40;;;;;;;14.02;84.24;102004.53;4938045;29;20048;-52
2022/06/10 05:27:25;;;;;;;22.60;6.32;;;;;;;14.05;83.79;102004.63;4937531;29;20054;-53
2022/06/10 05:29:50;;;;;;;27.23;6.53;;;;;;;14.13;83.98;101999.69;4938186;29;20030;-54
2022/06/10 05:32:16;;;;;;;38.28;7.78;;;;;;;14.18;83.58;101997.25;4937995;29;20024;-54
2022/06/10 05:34:47;;;;;;;30.02;6.57;;;;;;;14.20;83.48;102001.66;4937306;29;20027;-53
2022/06/10 05:37:21;;;;;;;25.38;5.65;;;;;;;14.25;83.63;102004.41;4937798;29;20526;-54
2022/06/10 05:39:47;;;;;;;24.10;5.80;;;;;;;14.26;83.47;102001.84;4937493;29;20066;-53
2022/06/10 05:42:14;;;;;;;26.55;6.72;;;;;;;14.30;83.65;102002.84;4937922;29;20055;-52
2022/06/10 05:44:42;;;;;;;29.92;6.80;;;;;;;14.33;83.87;102002.94;4937932;29;20063;-53
2022/06/10 05:47:11;;;;;;;25.08;5.70;;;;;;;14.34;84.13;102004.69;4936552;29;20473;-53
2022/06/10 05:49:39;;;;;;;28.38;6.32;;;;;;;14.36;84.09;101997.88;4937658;29;20031;-53
2022/06/10 05:52:06;;;;;;;24.67;5.32;;;;;;;14.43;83.99;102011.91;4937607;29;20074;-53
2022/06/10 05:54:33;;;;;;;29.02;6.13;;;;;;;14.48;83.86;102007.75;4937229;29;20028;-53
2022/06/10 05:56:59;;;;;;;;;;;;;;;14.57;83.73;102004.56;4938215;29;20102;-53
2022/06/10 05:59:24;;;;;;;29.60;6.03;;;;;;;14.65;83.33;102001.44;4937800;29;19989;-53
2022/06/10 06:01:50;;;;;;;28.35;6.32;;;;;;;14.79;82.87;102003.56;4936766;29;20180;-54
2022/06/10 06:04:15;;;;;;;25.38;5.75;;;;;;;14.90;82.86;102003.88;4937506;29;20106;-53
2022/06/10 06:06:41;;;;;;;25.13;6.28;;;;;;;15.01;82.42;102002.50;4937746;29;20066;-53
2022/06/10 06:09:07;;;;;;;33.17;5.85;;;;;;;15.11;81.84;102007.13;4936663;29;20111;-53
2022/06/10 06:11:32;;;;;;;28.33;5.82;;;;;;;15.21;81.51;102005.69;4937613;29;20186;-53
2022/06/10 06:13:58;;;;;;;24.67;6.07;;;;;;;15.32;81.32;102018.97;4937358;29;20435;-54
2022/06/10 06:16:24;;;;;;;29.65;6.35;;;;;;;15.38;81.90;102011.34;4936574;29;20527;-54
2022/06/10 06:18:51;;;;;;;28.52;5.63;;;;;;;15.44;80.54;102011.53;4937237;29;20079;-54
2022/06/10 06:21:16;;;;;;;25.77;5.75;;;;;;;15.51;80.40;102016.91;4937333;29;20035;-53
2022/06/10 06:23:42;;;;;;;19.15;4.45;;;;;;;15.53;79.76;102020.41;4936442;29;20055;-54
2022/06/10 06:26:13;;;;;;;23.30;5.15;;;;;;;15.53;80.28;102015.22;4937054;29;20058;-53
2022/06/10 06:28:38;;;;;;;22.50;4.95;;;;;;;15.56;79.76;102018.78;4937237;29;20035;-53
2022/06/10 06:31:04;;;;;;;16.92;4.78;;;;;;;15.58;79.59;102018.81;4936290;29;20401;-53
2022/06/10 06:33:29;;;;;;;17.90;4.88;;;;;;;15.64;79.07;102024.19;4936931;29;20400;-54
2022/06/10 06:35:55;;;;;;;23.90;4.90;;;;;;;15.70;78.93;102016.56;4936987;29;20104;-53
2022/06/10 06:38:22;;;;;;;19.15;4.47;;;;;;;15.75;78.23;102019.28;4936638;29;20079;-53
2022/06/10 06:40:48;;;;;;;22.45;5.03;;;;;;;15.78;78.37;102022.84;4937100;29;20107;-54
2022/06/10 06:43:13;;;;;;;24.65;4.40;;;;;;;15.82;78.44;102018.66;4935887;29;20485;-54
2022/06/10 06:45:40;;;;;;;26.08;4.20;;;;;;;15.83;77.44;102028.22;4936772;29;20032;-54
2022/06/10 06:48:09;;;;;;;20.15;3.72;;;;;;;15.82;77.98;102033.38;4936608;29;20079;-53
2022/06/10 06:50:39;;;;;;;15.63;4.00;;;;;;;15.80;77.49;102034.19;4936248;29;20028;-54
2022/06/10 06:53:04;;;;;;;18.13;3.70;;;;;;;15.84;78.03;102037.78;4936430;29;20051;-53
2022/06/10 06:55:30;;;;;;;21.02;4.10;;;;;;;15.86;77.55;102040.41;4936554;29;20036;-54
2022/06/10 06:57:55;;;;;;;15.30;3.67;;;;;;;15.87;77.60;102036.94;4935681;29;20050;-54
2022/06/10 07:00:21;;;;;;;23.13;4.35;;;;;;;15.96;78.36;102037.22;4935509;29;20472;-54
2022/06/10 07:02:47;;;;;;;12.40;3.40;;;;;;;16.05;77.21;102041.75;4936718;29;20067;-54
2022/06/10 07:05:12;;;;;;;18.85;4.03;;;;;;;16.12;76.83;102046.28;4935548;29;20035;-54
2022/06/10 07:07:39;;;;;;;23.42;4.68;;;;;;;16.23;76.45;102043.97;4936596;29;20467;-54
2022/06/10 07:10:05;;;;;;;26.02;4.13;;;;;;;16.28;75.43;102037.16;4936345;29;20032;-54
2022/06/10 07:12:30;;;;;;;16.58;3.70;;;;;;;16.25;75.83;102039.69;4935453;29;20452;-53
2022/06/10 07:14:56;;;;;;;16.02;4.22;;;;;;;16.31;75.39;102039.84;4936011;29;20023;-54
2022/06/10 07:17:21;;;;;;;18.20;3.85;;;;;;;16.42;75.38;102033.19;4936439;29;20063;-53
2022/06/10 07:19:51;;;;;;;18.67;4.32;;;;;;;16.53;75.64;102035.19;4935527;29;20098;-54
2022/06/10 07:22:17;;;;;;;25.48;4.78;;;;;;;16.63;75.80;102032.81;4936207;29;20075;-54
2022/06/10 07:24:42;;;;;;;24.05;4.20;;;;;;;16.69;73.38;102037.28;4936013;29;20044;-53
2022/06/10 07:27:09;;;;;;;19.17;4.35;;;;;;;16.77;73.78;102040.06;4935171;29;20035;-54
2022/06/10 07:29:34;;;;;;;21.63;4.18;;;;;;;16.86;73.73;102029.88;4936096;29;20032;-54
2022/06/10 07:32:00;;;;;;;14.90;3.47;;;;;;;16.91;73.37;102033.50;4936137;29;20028;-55
2022/06/10 07:34:25;;;;;;;17.42;3.42;;;;;;;17.01;72.21;102034.56;4935054;29;20095;-55
2022/06/10 07:36:50;;;;;;;24.70;3.80;;;;;;;17.09;71.94;102043.44;4935992;29;20114;-53
2022/06/10 07:39:16;;;;;;;15.52;3.38;;;;;;;17.17;71.38;102037.50;4935324;29;20032;-54
2022/06/10 07:41:56;;;;;;;13.13;3.33;;;;;;;17.19;70.71;102044.50;4936052;29;20032;-54
2022/06/10 07:44:23;;;;;;;12.82;3.13;;;;;;;17.08;71.26;102049.50;4935772;29;20163;-54
2022/06/10 07:46:51;;;;;;;17.65;3.22;;;;;;;17.02;71.65;102041.53;4935309;29;20052;-54
2022/06/10 07:49:18;;;;;;;13.13;2.88;;;;;;;16.98;72.64;102038.81;4935948;29;20038;-54
2022/06/10 07:51:43;;;;;;;16.42;3.17;;;;;;;16.99;72.37;102040.56;4935913;29;20063;-55
2022/06/10 07:54:08;;;;;;;11.35;2.90;;;;;;;16.99;72.54;102036.28;4934805;29;20055;-54
2022/06/10 07:56:34;;;;;;;16.55;4.10;;;;;;;17.01;72.82;102033.69;4935719;29;20031;-52
2022/06/10 07:59:00;;;;;;;20.17;4.32;;;;;;;16.98;71.60;102034.50;4935445;29;20391;-54
2022/06/10 08:01:27;;;;;;;20.88;3.92;;;;;;;17.08;72.69;102031.25;4934976;29;20027;-54
2022/06/10 08:03:52;;;;;;;22.95;4.00;;;;;;;17.24;72.23;102031.59;4935663;29;20055;-55
2022/06/10 08:06:20;;;;;;;24.58;3.42;;;;;;;17.38;71.85;102039.69;4935577;29;20103;-54
2022/06/10 08:08:46;;;;;;;18.67;4.05;;;;;;;17.51;71.00;102035.59;4934893;29;20032;-54
2022/06/10 08:11:11;;;;;;;18.40;3.30;;;;;;;17.63;70.31;102040.19;4936711;29;20038;-55
2022/06/10 08:13:37;;;;;;;17.17;3.38;;;;;;;17.73;69.17;102037.75;4939568;29;20102;-55
2022/06/10 08:16:03;;;;;;;13.48;3.10;;;;;;;17.82;68.84;102041.38;4938473;29;20031;-55
2022/06/10 08:18:31;;;;;;;15.20;3.30;;;;;;;17.87;68.46;102040.63;4939580;29;20027;-54
2022/06/10 08:23:42;;;;;;;17.25;3.38;;;;;;;18.05;68.38;102049.66;4938489;29;20199;-55
2022/06/10 08:26:08;;;;;;;14.48;3.25;;;;;;;18.16;68.18;102042.03;4939076;29;20106;-53
2022/06/10 08:28:35;;;;;;;21.65;3.58;;;;;;;18.20;65.97;102046.47;4938793;29;20035;-54
2022/06/10 08:31:01;;;;;;;21.17;4.55;;;;;;;18.31;66.83;102046.63;4939214;29;20420;-54
2022/06/10 08:33:26;;;;;;;21.67;3.60;;;;;;;18.32;64.92;102038.84;4939058;29;20490;-54
2022/06/10 08:35:51;;;;;;;18.83;3.20;;;;;;;18.31;65.71;102046.63;4938257;29;20039;-54
2022/06/10 08:38:17;;;;;;;15.77;3.50;;;;;;;18.31;65.13;102044.00;4939117;29;20032;-54
2022/06/10 08:40:52;;;;;;;20.13;3.63;;;;;;;18.37;65.72;102047.63;4939191;29;20052;-54
2022/06/10 08:43:42;;;;;;;15.38;3.38;;;;;;;18.49;66.27;102046.03;4938585;29;20086;-54
2022/06/10 08:46:34;;;;;;;17.83;3.80;;;;;;;18.63;65.82;102038.44;4938920;29;20036;-55
2022/06/10 08:49:09;;;;;;;17.30;3.58;;;;;;;18.58;64.99;102048.84;4938770;29;20031;-55
2022/06/10 08:51:52;;;;;;;17.35;3.95;;;;;;;18.61;64.95;102035.81;4938179;29;20078;-55
2022/06/10 08:54:20;;;;;;;23.15;4.35;;;;;;;18.62;64.31;102027.13;4938978;29;20023;-55
2022/06/10 08:56:49;;;;;;;20.92;4.53;;;;;;;18.64;64.42;102030.63;4938162;29;20083;-55
2022/06/10 08:59:24;;;;;;;20.17;4.50;;;;;;;18.74;63.66;102027.28;4938501;29;20369;-55
2022/06/10 09:02:03;;;;;;;38.22;5.70;;;;;;;18.76;63.66;102029.94;4938652;29;20028;-55
2022/06/10 09:04:46;;;;;;;19.10;4.15;;;;;;;18.85;64.19;102023.97;4938002;29;20044;-54
2022/06/10 09:07:36;;;;;;;24.60;4.38;;;;;;;18.97;64.40;102026.78;4938503;29;20047;-55
2022/06/10 09:10:03;;;;;;;26.98;4.65;;;;;;;19.02;63.16;102026.88;4938678;29;20043;-55
2022/06/10 09:12:40;;;;;;;;;;;;;;;19.14;64.87;102031.38;4938252;29;20055;-55
2022/06/10 09:15:06;;;;;;;;;;;;;;;19.30;65.14;102032.41;4938773;29;19958;-55
2022/06/10 09:17:40;;;;;;;24.20;5.47;;;;;;;19.48;63.31;102031.75;4938515;29;19937;-54
2022/06/10 09:20:23;;;;;;;18.05;4.15;;;;;;;19.52;62.48;102026.59;4937494;29;20432;-56
2022/06/10 09:22:55;;;;;;;22.40;4.78;;;;;;;19.49;63.08;102038.75;4937064;28;20027;-55
2022/06/10 09:25:27;;;;;;;18.92;4.88;;;;;;;19.45;61.94;102030.00;4937651;29;20035;-55
2022/06/10 09:27:58;;;;;;;19.85;4.70;;;;;;;19.57;63.65;102032.75;4938286;29;20083;-55
2022/06/10 09:30:33;;;;;;;21.05;4.93;;;;;;;19.70;63.05;102036.38;4938092;29;20448;-55
2022/06/10 09:33:05;;;;;;;17.10;4.50;;;;;;;19.80;61.38;102041.72;4937465;29;20030;-56
2022/06/10 09:35:58;;;;;;;31.70;6.28;;;;;;;19.79;61.73;102037.34;4938075;29;20035;-55
2022/06/10 09:38:36;;;;;;;24.80;5.32;;;;;;;19.89;62.10;102028.75;4938039;29;20035;-55
2022/06/10 09:41:15;;;;;;;27.08;5.55;;;;;;;20.11;61.96;102037.66;4937085;29;20106;-55
2022/06/10 09:43:55;;;;;;;23.90;5.38;;;;;;;20.32;60.35;102023.91;4938020;29;20432;-55
2022/06/10 09:46:45;;;;;;;25.00;5.18;;;;;;;20.59;61.96;102027.56;4937310;29;20032;-55
2022/06/10 09:49:40;;;;;;;23.58;5.50;;;;;;;20.84;59.54;102038.25;4937436;29;20461;-55
2022/06/10 09:52:43;;;;;;;25.63;5.50;;;;;;;20.98;59.44;102046.19;4937885;29;20032;-56
2022/06/10 09:55:39;;;;;;;19.85;5.55;;;;;;;21.12;59.65;102038.41;4936657;29;20038;-55
2022/06/10 09:58:12;;;;;;;27.77;5.30;;;;;;;21.01;59.08;102041.84;4937771;29;20028;-55
2022/06/10 10:01:03;;;;;;;21.10;5.05;;;;;;;21.02;58.50;102040.97;4937042;29;20067;-56
2022/06/10 10:03:58;;;;;;;19.02;5.32;;;;;;;21.38;59.37;102041.09;4937579;29;20123;-56
2022/06/10 10:06:30;;;;;;;26.60;6.32;;;;;;;21.54;56.67;102044.69;4937411;29;20551;-55
2022/06/10 10:09:08;;;;;;;21.63;6.63;;;;;;;21.67;57.98;102043.88;4936651;29;20464;-56
2022/06/10 10:11:52;;;;;;;20.48;5.57;;;;;;;22.15;57.44;102043.06;4937513;29;20047;-56
2022/06/10 10:14:42;;;;;;;26.58;6.30;;;;;;;22.17;57.74;102041.31;4936587;29;20036;-56
2022/06/10 10:17:45;;;;;;;24.92;5.80;;;;;;;22.24;57.69;102039.56;4937119;29;20388;-56
2022/06/10 10:20:46;;;;;;;24.15;6.32;;;;;;;22.22;55.79;102041.31;4937088;29;20042;-56
2022/06/10 10:23:28;;;;;;;17.38;5.90;;;;;;;21.83;57.77;102042.16;4924532;29;20055;-56
2022/06/10 10:25:54;;;;;;;30.63;6.30;;;;;;;22.01;56.54;102037.78;4937052;29;20499;-55
2022/06/10 10:28:24;;;;;;;25.25;6.00;;;;;;;23.05;53.75;102032.44;4936400;29;20040;-56
2022/06/10 10:31:23;;;;;;;24.65;6.30;;;;;;;23.78;53.49;102027.72;4936973;29;20433;-56
2022/06/10 10:33:49;;;;;;;28.35;6.47;;;;;;;24.14;52.22;102031.88;4937083;29;20024;-56
2022/06/10 10:36:30;;;;;;;18.90;4.97;;;;;;;24.71;51.22;102032.25;4936502;29;20046;-56
2022/06/10 10:38:57;;;;;;;22.67;5.63;;;;;;;24.88;50.05;102032.06;4936884;29;20058;-56
2022/06/10 10:41:25;;;;;;;20.45;4.90;;;;;;;24.73;49.15;102027.84;4936813;29;20039;-56
2022/06/10 10:43:54;;;;;;;25.58;5.90;;;;;;;24.24;50.05;102031.78;4936026;29;20515;-56
2022/06/10 10:46:31;;;;;;;16.08;6.18;;;;;;;23.63;52.40;102024.31;4936906;29;20074;-55
2022/06/10 10:48:57;;;;;;;20.42;6.10;;;;;;;23.24;51.63;102026.28;4936793;29;20028;-56
2022/06/10 10:51:35;;;;;;;18.05;6.00;;;;;;;22.89;53.69;102031.63;4935872;29;20102;-55
2022/06/10 10:54:21;;;;;;;20.60;6.85;;;;;;;22.80;54.41;102024.63;4936614;29;20115;-55
2022/06/10 10:56:49;;;;;;;22.98;6.35;;;;;;;22.79;54.13;102030.78;4935993;29;20032;-55
2022/06/10 10:59:32;;;;;;;25.10;8.95;;;;;;;22.79;54.20;102025.53;4936583;29;20162;-55
2022/06/10 11:01:59;;;;;;;25.42;8.77;;;;;;;23.08;54.59;102025.41;4936406;29;20031;-55
2022/06/10 11:04:34;;;;;;;29.40;8.37;;;;;;;22.91;53.78;102028.09;4935724;29;20024;-55
2022/06/10 11:07:11;;;;;;;26.55;6.72;;;;;;;22.34;55.45;102034.31;4936455;29;20039;-56
2022/06/10 11:09:49;;;;;;;24.60;7.80;;;;;;;21.87;57.81;102035.16;4936497;29;20447;-55
2022/06/10 11:12:18;;;;;;;25.35;6.60;;;;;;;21.79;58.24;102032.50;4935541;29;20102;-54
2022/06/10 11:14:48;;;;;;;23.10;6.45;;;;;;;22.23;57.85;102032.56;4936169;29;20111;-54
2022/06/10 11:17:16;;;;;;;36.60;7.32;;;;;;;22.07;57.31;102032.56;4936180;29;20057;-55
2022/06/10 11:19:46;;;;;;;;;;;;;;;22.17;57.92;102030.81;4936613;29;20024;-54
2022/06/10 11:22:19;;;;;;;27.02;6.50;;;;;;;22.71;57.20;102022.03;4936079;29;19919;-55
2022/06/10 11:24:49;;;;;;;21.90;6.10;;;;;;;23.38;55.83;102022.69;4935337;29;20059;-55
2022/06/10 11:27:22;;;;;;;31.20;7.43;;;;;;;23.46;54.20;102023.50;4935990;29;20060;-56
2022/06/10 11:30:06;;;;;;;24.98;6.50;;;;;;;23.28;54.77;102028.00;4936413;29;20035;-56
2022/06/10 11:33:00;;;;;;;19.08;6.68;;;;;;;23.39;54.76;102024.44;4935227;29;20524;-55
2022/06/10 11:35:33;;;;;;;24.20;6.45;;;;;;;23.57;53.59;102016.44;4933650;29;20040;-56
2022/06/10 11:38:04;;;;;;;26.80;7.13;;;;;;;23.37;53.52;102016.56;4936151;29;20031;-56
2022/06/10 11:40:40;;;;;;;24.98;6.63;;;;;;;22.95;55.79;102024.59;4935206;29;20035;-56
2022/06/10 11:43:12;;;;;;;23.88;6.57;;;;;;;23.35;55.12;102019.19;4935944;29;20027;-56
2022/06/10 11:45:51;;;;;;;24.42;5.55;;;;;;;24.49;54.20;102006.06;4934582;29;20023;-56
2022/06/10 11:48:39;;;;;;;16.70;4.65;;;;;;;25.24;49.08;102009.66;4936008;29;20028;-56